createdAt,value
2022-10-17T00:00:40.950Z,53.61
2022-10-17T00:01:40.920Z,51.88
2022-10-17T00:02:40.872Z,55.54
2022-10-17T00:03:40.875Z,53.85
2022-10-17T00:04:40.885Z,54.39
2022-10-17T00:05:40.803Z,49.11
2022-10-17T00:06:40.788Z,52.37
2022-10-17T00:07:40.840Z,54.11
2022-10-17T00:08:40.850Z,56.30
2022-10-17T00:09:40.882Z,53.11
2022-10-17T00:10:41.863Z,48.78
2022-10-17T00:11:40.853Z,48.18
2022-10-17T00:12:40.835Z,52.44
2022-10-17T00:13:40.876Z,50.70
2022-10-17T00:14:40.796Z,53.33
2022-10-17T00:15:40.851Z,53.25
2022-10-17T00:16:40.830Z,52.62
2022-10-17T00:17:40.768Z,52.77
2022-10-17T00:18:40.798Z,49.55
2022-10-17T00:19:40.737Z,53.49
2022-10-17T00:20:40.736Z,53.66
2022-10-17T00:21:40.823Z,52.08
2022-10-17T00:22:40.678Z,51.76
2022-10-17T00:23:40.632Z,52.69
2022-10-17T00:24:40.646Z,50.35
2022-10-17T00:25:40.633Z,54.78
2022-10-17T00:26:40.645Z,55.01
2022-10-17T00:27:40.650Z,57.41
2022-10-17T00:28:40.649Z,49.17
2022-10-17T00:29:40.615Z,51.01
2022-10-17T00:30:40.620Z,53.78
2022-10-17T00:31:40.737Z,54.63
2022-10-17T00:32:40.729Z,54.80
2022-10-17T00:33:40.669Z,54.01
2022-10-17T00:34:40.692Z,55.24
2022-10-17T00:35:40.586Z,51.29
2022-10-17T00:36:40.700Z,50.20
2022-10-17T00:37:40.590Z,50.26
2022-10-17T00:38:40.693Z,49.71
2022-10-17T00:39:40.611Z,55.87
2022-10-17T00:40:40.601Z,49.45
2022-10-17T00:41:40.594Z,50.25
2022-10-17T00:42:40.630Z,50.02
2022-10-17T00:43:40.506Z,49.20
2022-10-17T00:44:40.470Z,56.03
2022-10-17T00:45:40.607Z,52.72
2022-10-17T00:46:40.463Z,56.19
2022-10-17T00:47:40.492Z,52.21
2022-10-17T00:48:40.512Z,51.52
2022-10-17T00:49:40.563Z,52.09
2022-10-17T00:50:40.548Z,57.64
2022-10-17T00:51:40.541Z,55.46
2022-10-17T00:52:40.512Z,51.22
2022-10-17T00:53:40.521Z,51.03
2022-10-17T00:54:40.563Z,55.15
2022-10-17T00:55:40.579Z,52.83
2022-10-17T00:56:40.505Z,51.79
2022-10-17T00:57:40.426Z,55.88
2022-10-17T00:58:40.486Z,55.44
2022-10-17T00:59:40.528Z,51.74
2022-10-17T01:00:40.535Z,54.07
2022-10-17T01:01:41.525Z,49.88
2022-10-17T01:02:40.366Z,50.39
2022-10-17T01:03:40.467Z,49.40
2022-10-17T01:04:40.352Z,52.51
2022-10-17T01:05:40.393Z,56.26
2022-10-17T01:06:40.321Z,53.64
2022-10-17T01:07:40.350Z,58.18
2022-10-17T01:08:40.322Z,50.38
2022-10-17T01:09:40.422Z,49.51
2022-10-17T01:10:40.427Z,53.40
2022-10-17T01:11:40.365Z,60.45
2022-10-17T01:12:40.389Z,54.08
2022-10-17T01:13:40.464Z,51.26
2022-10-17T01:14:40.360Z,55.53
2022-10-17T01:15:40.372Z,51.21
2022-10-17T01:16:40.386Z,53.99
2022-10-17T01:17:40.335Z,53.61
2022-10-17T01:18:40.503Z,50.79
2022-10-17T01:19:40.334Z,51.25
2022-10-17T01:20:40.359Z,52.98
2022-10-17T01:21:40.411Z,54.48
2022-10-17T01:22:40.211Z,57.75
2022-10-17T01:23:40.270Z,56.93
2022-10-17T01:24:40.220Z,55.23
2022-10-17T01:25:40.179Z,52.97
2022-10-17T01:26:40.293Z,56.62
2022-10-17T01:27:40.343Z,57.85
2022-10-17T01:28:40.388Z,51.01
2022-10-17T01:29:40.268Z,49.88
2022-10-17T01:30:40.259Z,49.24
2022-10-17T01:31:40.231Z,48.90
2022-10-17T01:32:40.268Z,53.47
2022-10-17T01:33:40.279Z,57.86
2022-10-17T01:34:40.222Z,51.90
2022-10-17T01:35:40.237Z,50.20
2022-10-17T01:36:40.230Z,51.41
2022-10-17T01:37:40.146Z,52.93
2022-10-17T01:38:40.165Z,51.64
2022-10-17T01:39:42.637Z,51.22
2022-10-17T01:40:40.124Z,55.22
2022-10-17T01:41:40.229Z,52.27
2022-10-17T01:42:40.045Z,55.10
2022-10-17T01:43:40.125Z,55.53
2022-10-17T01:44:40.176Z,52.52
2022-10-17T01:45:40.241Z,50.60
2022-10-17T01:46:40.128Z,54.76
2022-10-17T01:47:40.140Z,48.96
2022-10-17T01:48:40.116Z,50.99
2022-10-17T01:49:40.130Z,51.90
2022-10-17T01:50:40.107Z,51.02
2022-10-17T01:51:40.071Z,52.81
2022-10-17T01:52:40.085Z,57.45
2022-10-17T01:53:40.063Z,55.63
2022-10-17T01:54:40.114Z,49.87
2022-10-17T01:55:40.061Z,52.83
2022-10-17T01:56:40.076Z,54.36
2022-10-17T01:57:39.983Z,52.60
2022-10-17T01:58:39.954Z,56.65
2022-10-17T01:59:40.028Z,57.25
2022-10-17T02:00:40.008Z,55.19
2022-10-17T02:01:40.069Z,51.57
2022-10-17T02:02:40.046Z,49.82
2022-10-17T02:03:40.022Z,50.41
2022-10-17T02:04:40.027Z,56.38
2022-10-17T02:05:40.042Z,55.39
2022-10-17T02:06:40.063Z,54.01
2022-10-17T02:07:39.996Z,53.37
2022-10-17T02:08:40.017Z,50.30
2022-10-17T02:09:39.973Z,50.54
2022-10-17T02:10:39.984Z,52.48
2022-10-17T02:11:40.022Z,55.84
2022-10-17T02:12:39.963Z,53.77
2022-10-17T02:13:39.931Z,54.08
2022-10-17T02:14:39.848Z,52.58
2022-10-17T02:15:39.832Z,54.51
2022-10-17T02:16:39.981Z,54.68
2022-10-17T02:17:39.853Z,55.37
2022-10-17T02:18:39.922Z,54.47
2022-10-17T02:19:39.920Z,50.35
2022-10-17T02:20:39.891Z,55.54
2022-10-17T02:21:39.880Z,51.89
2022-10-17T02:22:40.244Z,58.39
2022-10-17T02:23:39.932Z,55.41
2022-10-17T02:24:39.852Z,53.06
2022-10-17T02:25:39.895Z,53.46
2022-10-17T02:26:39.830Z,52.53
2022-10-17T02:27:39.950Z,53.13
2022-10-17T02:28:39.973Z,51.94
2022-10-17T02:29:39.842Z,55.12
2022-10-17T02:30:39.793Z,57.53
2022-10-17T02:31:39.886Z,54.72
2022-10-17T02:32:39.831Z,52.28
2022-10-17T02:33:39.814Z,55.90
2022-10-17T02:34:39.762Z,58.64
2022-10-17T02:35:39.761Z,55.56
2022-10-17T02:36:39.697Z,55.52
2022-10-17T02:37:39.666Z,53.72
2022-10-17T02:38:39.753Z,57.25
2022-10-17T02:39:39.652Z,53.31
2022-10-17T02:40:39.661Z,56.41
2022-10-17T02:41:39.700Z,55.31
2022-10-17T02:42:39.635Z,57.80
2022-10-17T02:43:39.639Z,51.87
2022-10-17T02:44:39.641Z,54.83
2022-10-17T02:45:39.719Z,54.56
2022-10-17T02:46:39.714Z,56.69
2022-10-17T02:47:39.737Z,54.09
2022-10-17T02:48:39.804Z,52.78
2022-10-17T02:49:39.726Z,50.12
2022-10-17T02:50:39.774Z,53.04
2022-10-17T02:51:39.676Z,54.70
2022-10-17T02:52:39.652Z,57.05
2022-10-17T02:53:39.630Z,55.63
2022-10-17T02:54:39.670Z,57.71
2022-10-17T02:55:39.560Z,58.77
2022-10-17T02:56:39.536Z,54.94
2022-10-17T02:57:39.562Z,56.39
2022-10-17T02:58:39.603Z,56.65
2022-10-17T02:59:39.610Z,55.30
2022-10-17T03:00:39.630Z,58.88
2022-10-17T03:01:39.592Z,54.56
2022-10-17T03:02:39.624Z,59.72
2022-10-17T03:03:39.579Z,56.93
2022-10-17T03:04:39.553Z,55.15
2022-10-17T03:05:39.551Z,54.25
2022-10-17T03:06:39.556Z,53.79
2022-10-17T03:07:39.547Z,59.91
2022-10-17T03:08:39.526Z,59.87
2022-10-17T03:09:39.436Z,60.64
2022-10-17T03:10:39.440Z,58.21
2022-10-17T03:11:39.430Z,57.83
2022-10-17T03:12:39.502Z,55.96
2022-10-17T03:13:39.980Z,56.23
2022-10-17T03:14:39.423Z,59.49
2022-10-17T03:15:39.429Z,57.35
2022-10-17T03:16:39.511Z,57.79
2022-10-17T03:17:39.502Z,57.68
2022-10-17T03:18:39.455Z,56.61
2022-10-17T03:19:39.468Z,58.83
2022-10-17T03:20:39.455Z,58.63
2022-10-17T03:21:39.453Z,56.60
2022-10-17T03:22:40.486Z,60.44
2022-10-17T03:23:39.446Z,58.66
2022-10-17T03:24:39.429Z,57.56
2022-10-17T03:25:39.451Z,59.41
2022-10-17T03:26:39.440Z,58.88
2022-10-17T03:27:39.587Z,58.01
2022-10-17T03:28:39.382Z,56.83
2022-10-17T03:29:39.304Z,58.19
2022-10-17T03:30:39.295Z,57.90
2022-10-17T03:31:39.416Z,57.68
2022-10-17T03:32:39.243Z,59.05
2022-10-17T03:33:39.406Z,58.94
2022-10-17T03:34:39.341Z,58.24
2022-10-17T03:35:39.373Z,59.48
2022-10-17T03:36:39.314Z,59.70
2022-10-17T03:37:39.351Z,58.06
2022-10-17T03:38:39.367Z,56.81
2022-10-17T03:39:39.305Z,56.03
2022-10-17T03:40:39.318Z,59.30
2022-10-17T03:41:39.289Z,60.05
2022-10-17T03:42:39.358Z,61.84
2022-10-17T03:43:39.293Z,61.34
2022-10-17T03:44:39.526Z,59.96
2022-10-17T03:45:39.270Z,59.79
2022-10-17T03:46:39.475Z,59.37
2022-10-17T03:47:39.513Z,60.25
2022-10-17T03:48:39.202Z,60.59
2022-10-17T03:49:39.194Z,61.81
2022-10-17T03:50:39.247Z,59.33
2022-10-17T03:51:39.161Z,61.84
2022-10-17T03:52:39.148Z,59.73
2022-10-17T03:53:40.276Z,62.01
2022-10-17T03:54:39.260Z,61.31
2022-10-17T03:55:39.202Z,61.46
2022-10-17T03:56:39.208Z,61.83
2022-10-17T03:57:41.167Z,60.40
2022-10-17T03:58:40.283Z,62.51
2022-10-17T03:59:39.220Z,61.66
2022-10-17T04:00:39.209Z,61.24
2022-10-17T04:01:39.263Z,59.74
2022-10-17T04:02:39.220Z,60.24
2022-10-17T04:03:39.181Z,60.99
2022-10-17T04:04:39.189Z,61.90
2022-10-17T04:05:39.254Z,61.09
2022-10-17T04:06:39.120Z,60.99
2022-10-17T04:07:39.080Z,61.13
2022-10-17T04:08:39.063Z,60.78
2022-10-17T04:09:39.007Z,60.91
2022-10-17T04:10:39.049Z,61.75
2022-10-17T04:11:39.083Z,60.04
2022-10-17T04:12:39.004Z,61.67
2022-10-17T04:13:39.002Z,61.10
2022-10-17T04:14:38.986Z,61.41
2022-10-17T04:15:38.982Z,60.56
2022-10-17T04:16:39.127Z,62.27
2022-10-17T04:17:39.079Z,61.28
2022-10-17T04:18:39.131Z,62.00
2022-10-17T04:19:39.030Z,61.14
2022-10-17T04:20:39.033Z,61.10
2022-10-17T04:21:39.027Z,59.18
2022-10-17T04:22:39.047Z,61.71
2022-10-17T04:23:39.017Z,62.34
2022-10-17T04:24:38.974Z,61.69
2022-10-17T04:25:39.023Z,61.77
2022-10-17T04:26:38.983Z,62.52
2022-10-17T04:27:39.034Z,64.02
2022-10-17T04:29:38.889Z,63.05
2022-10-17T04:30:41.188Z,62.60
2022-10-17T04:31:39.886Z,63.72
2022-10-17T04:32:39.076Z,63.82
2022-10-17T04:33:39.014Z,63.34
2022-10-17T04:34:38.944Z,63.36
2022-10-17T04:35:38.886Z,64.47
2022-10-17T04:36:38.981Z,67.17
2022-10-17T04:37:38.892Z,69.82
2022-10-17T04:38:38.943Z,71.53
2022-10-17T04:39:38.882Z,72.80
2022-10-17T04:40:38.907Z,65.38
2022-10-17T04:41:38.855Z,64.35
2022-10-17T04:42:38.874Z,63.89
2022-10-17T04:43:38.850Z,63.27
2022-10-17T04:44:38.879Z,65.17
2022-10-17T04:45:38.850Z,72.24
2022-10-17T04:46:38.852Z,68.89
2022-10-17T04:47:38.802Z,62.56
2022-10-17T04:48:38.723Z,61.55
2022-10-17T04:49:38.781Z,61.66
2022-10-17T04:50:38.778Z,62.06
2022-10-17T04:51:38.822Z,63.14
2022-10-17T04:52:38.796Z,61.65
2022-10-17T04:53:38.840Z,61.20
2022-10-17T04:54:38.780Z,62.60
2022-10-17T04:55:38.741Z,62.87
2022-10-17T04:56:38.774Z,62.31
2022-10-17T04:57:38.714Z,62.21
2022-10-17T04:58:38.751Z,62.44
2022-10-17T04:59:38.742Z,61.76
2022-10-17T05:00:38.809Z,62.67
2022-10-17T05:01:39.792Z,62.40
2022-10-17T05:02:38.744Z,61.56
2022-10-17T05:03:38.703Z,62.12
2022-10-17T05:04:38.681Z,61.39
2022-10-17T05:05:38.639Z,61.66
2022-10-17T05:06:38.605Z,60.77
2022-10-17T05:07:38.686Z,60.35
2022-10-17T05:08:38.743Z,60.52
2022-10-17T05:09:38.674Z,61.84
2022-10-17T05:10:38.724Z,62.53
2022-10-17T05:11:38.632Z,61.97
2022-10-17T05:12:38.688Z,62.46
2022-10-17T05:13:38.607Z,62.57
2022-10-17T05:14:38.630Z,62.52
2022-10-17T05:15:38.669Z,63.83
2022-10-17T05:16:38.705Z,64.00
2022-10-17T05:17:38.603Z,64.70
2022-10-17T05:18:38.608Z,64.56
2022-10-17T05:19:38.482Z,62.88
2022-10-17T05:20:38.498Z,64.15
2022-10-17T05:21:38.620Z,63.21
2022-10-17T05:22:41.245Z,63.73
2022-10-17T05:23:38.497Z,65.51
2022-10-17T05:24:38.500Z,63.80
2022-10-17T05:25:38.505Z,63.52
2022-10-17T05:26:38.457Z,64.14
2022-10-17T05:27:38.615Z,63.64
2022-10-17T05:28:38.599Z,64.08
2022-10-17T05:29:38.507Z,63.78
2022-10-17T05:30:38.502Z,63.74
2022-10-17T05:31:38.469Z,64.93
2022-10-17T05:32:38.710Z,63.32
2022-10-17T05:33:38.502Z,62.25
2022-10-17T05:34:39.485Z,63.53
2022-10-17T05:35:38.511Z,64.08
2022-10-17T05:36:38.483Z,65.66
2022-10-17T05:37:38.516Z,65.49
2022-10-17T05:38:38.483Z,65.19
2022-10-17T05:39:38.550Z,65.60
2022-10-17T05:40:38.438Z,66.49
2022-10-17T05:41:38.339Z,65.95
2022-10-17T05:43:38.433Z,66.12
2022-10-17T05:44:38.387Z,65.32
2022-10-17T05:45:38.403Z,64.86
2022-10-17T05:46:38.364Z,67.07
2022-10-17T05:47:38.394Z,64.08
2022-10-17T05:48:39.430Z,67.03
2022-10-17T05:49:48.349Z,65.15
2022-10-17T05:50:40.263Z,64.53
2022-10-17T05:52:38.343Z,67.05
2022-10-17T05:53:38.354Z,67.34
2022-10-17T05:54:38.397Z,66.46
2022-10-17T05:55:38.338Z,65.24
2022-10-17T05:56:38.313Z,65.05
2022-10-17T05:57:38.203Z,67.18
2022-10-17T05:58:49.771Z,67.54
2022-10-17T05:59:40.270Z,64.73
2022-10-17T06:00:38.386Z,66.84
2022-10-17T06:01:38.235Z,65.56
2022-10-17T06:02:38.252Z,67.15
2022-10-17T06:03:38.275Z,66.64
2022-10-17T06:04:38.291Z,66.79
2022-10-17T06:05:38.234Z,66.45
2022-10-17T06:06:38.217Z,67.11
2022-10-17T06:07:38.272Z,66.52
2022-10-17T06:08:38.237Z,64.99
2022-10-17T06:09:38.382Z,65.05
2022-10-17T06:10:38.290Z,66.14
2022-10-17T06:11:38.271Z,64.75
2022-10-17T06:12:38.187Z,65.82
2022-10-17T06:13:38.257Z,65.52
2022-10-17T06:14:38.180Z,65.47
2022-10-17T06:15:38.174Z,63.17
2022-10-17T06:16:38.091Z,63.28
2022-10-17T06:17:38.085Z,63.32
2022-10-17T06:18:38.113Z,63.79
2022-10-17T06:19:38.055Z,62.91
2022-10-17T06:20:39.753Z,63.89
2022-10-17T06:21:38.037Z,66.17
2022-10-17T06:22:38.052Z,63.18
2022-10-17T06:23:38.063Z,65.00
2022-10-17T06:24:38.070Z,63.94
2022-10-17T06:25:38.029Z,64.36
2022-10-17T06:26:38.118Z,64.69
2022-10-17T06:27:38.176Z,63.50
2022-10-17T06:28:38.191Z,62.49
2022-10-17T06:29:38.062Z,63.05
2022-10-17T06:30:38.086Z,63.10
2022-10-17T06:31:38.149Z,62.71
2022-10-17T06:32:38.070Z,64.23
2022-10-17T06:33:38.085Z,64.41
2022-10-17T06:34:38.031Z,64.75
2022-10-17T06:35:38.045Z,64.30
2022-10-17T06:36:37.941Z,62.99
2022-10-17T06:37:38.532Z,63.49
2022-10-17T06:38:37.981Z,62.65
2022-10-17T06:39:37.930Z,61.52
2022-10-17T06:40:37.920Z,62.46
2022-10-17T06:41:37.907Z,62.11
2022-10-17T06:42:37.930Z,62.49
2022-10-17T06:43:37.857Z,62.47
2022-10-17T06:44:37.908Z,62.65
2022-10-17T06:45:37.976Z,61.42
2022-10-17T06:46:37.948Z,61.37
2022-10-17T06:47:38.009Z,61.96
2022-10-17T06:48:37.946Z,61.85
2022-10-17T06:49:38.023Z,63.09
2022-10-17T06:50:38.004Z,61.26
2022-10-17T06:51:38.031Z,61.49
2022-10-17T06:52:37.994Z,61.39
2022-10-17T06:53:37.948Z,61.65
2022-10-17T06:54:37.892Z,62.90
2022-10-17T06:55:37.882Z,63.81
2022-10-17T06:56:37.886Z,61.02
2022-10-17T06:57:37.791Z,62.82
2022-10-17T06:58:37.906Z,61.19
2022-10-17T06:59:37.794Z,61.77
2022-10-17T07:00:37.866Z,62.62
2022-10-17T07:01:38.392Z,62.18
2022-10-17T07:02:37.797Z,63.58
2022-10-17T07:03:37.766Z,62.27
2022-10-17T07:04:37.799Z,61.86
2022-10-17T07:05:37.796Z,60.62
2022-10-17T07:06:37.753Z,60.86
2022-10-17T07:07:40.131Z,61.28
2022-10-17T07:08:39.722Z,62.72
2022-10-17T07:09:37.777Z,63.33
2022-10-17T07:10:37.877Z,62.01
2022-10-17T07:11:37.772Z,62.22
2022-10-17T07:12:37.758Z,61.94
2022-10-17T07:13:39.272Z,61.07
2022-10-17T07:14:38.778Z,62.77
2022-10-17T07:15:37.769Z,61.95
2022-10-17T07:16:37.755Z,62.33
2022-10-17T07:17:37.776Z,61.83
2022-10-17T07:18:37.721Z,62.65
2022-10-17T07:19:37.667Z,62.58
2022-10-17T07:20:37.663Z,61.73
2022-10-17T07:21:39.208Z,62.39
2022-10-17T07:22:37.629Z,60.88
2022-10-17T07:23:38.687Z,62.00
2022-10-17T07:24:37.797Z,61.58
2022-10-17T07:25:40.098Z,61.73
2022-10-17T07:26:38.714Z,60.39
2022-10-17T07:27:37.664Z,59.55
2022-10-17T07:28:37.724Z,61.54
2022-10-17T07:29:37.663Z,62.09
2022-10-17T07:30:37.730Z,61.49
2022-10-17T07:31:37.713Z,61.15
2022-10-17T07:32:37.639Z,60.68
2022-10-17T07:33:37.691Z,61.22
2022-10-17T07:34:37.625Z,62.17
2022-10-17T07:35:37.636Z,61.22
2022-10-17T07:36:37.615Z,60.53
2022-10-17T07:37:37.553Z,61.03
2022-10-17T07:38:37.633Z,61.73
2022-10-17T07:39:37.530Z,61.38
2022-10-17T07:40:37.600Z,61.65
2022-10-17T07:41:37.605Z,61.17
2022-10-17T07:43:37.621Z,61.48
2022-10-17T07:44:37.559Z,62.54
2022-10-17T07:45:37.573Z,61.15
2022-10-17T07:46:38.023Z,59.40
2022-10-17T07:47:37.563Z,60.48
2022-10-17T07:48:37.488Z,60.31
2022-10-17T07:49:37.545Z,60.55
2022-10-17T07:50:37.445Z,60.10
2022-10-17T07:51:37.595Z,60.22
2022-10-17T07:52:37.450Z,60.71
2022-10-17T07:53:37.550Z,60.50
2022-10-17T07:54:37.415Z,61.30
2022-10-17T07:55:37.419Z,62.70
2022-10-17T07:56:37.437Z,61.59
2022-10-17T07:57:37.372Z,61.21
2022-10-17T07:58:37.440Z,67.11
2022-10-17T07:59:37.382Z,65.60
2022-10-17T08:00:38.485Z,62.68
2022-10-17T08:01:37.498Z,59.53
2022-10-17T08:02:37.431Z,59.47
2022-10-17T08:03:37.448Z,57.81
2022-10-17T08:04:37.403Z,60.01
2022-10-17T08:05:37.453Z,59.08
2022-10-17T08:06:37.403Z,58.69
2022-10-17T08:07:37.385Z,57.98
2022-10-17T08:08:37.392Z,58.65
2022-10-17T08:09:37.417Z,57.84
2022-10-17T08:10:37.416Z,57.94
2022-10-17T08:11:37.393Z,58.39
2022-10-17T08:12:37.379Z,58.17
2022-10-17T08:13:37.346Z,58.78
2022-10-17T08:14:37.422Z,56.94
2022-10-17T08:15:37.380Z,59.01
2022-10-17T08:16:37.255Z,58.92
2022-10-17T08:17:37.244Z,56.26
2022-10-17T08:18:37.285Z,56.51
2022-10-17T08:19:38.370Z,57.30
2022-10-17T08:20:37.176Z,57.36
2022-10-17T08:21:37.311Z,58.43
2022-10-17T08:22:37.301Z,57.86
2022-10-17T08:23:37.315Z,58.84
2022-10-17T08:24:37.297Z,58.82
2022-10-17T08:25:37.332Z,59.31
2022-10-17T08:26:40.714Z,58.24
2022-10-17T08:27:39.306Z,59.44
2022-10-17T08:28:37.312Z,58.69
2022-10-17T08:29:38.305Z,58.67
2022-10-17T08:30:37.313Z,58.02
2022-10-17T08:31:37.191Z,58.29
2022-10-17T08:32:37.226Z,58.32
2022-10-17T08:33:37.218Z,58.13
2022-10-17T08:34:38.190Z,57.26
2022-10-17T08:35:37.167Z,57.24
2022-10-17T08:36:37.114Z,57.20
2022-10-17T08:37:37.079Z,57.72
2022-10-17T08:38:41.461Z,58.89
2022-10-17T08:39:38.054Z,58.19
2022-10-17T08:40:37.099Z,56.61
2022-10-17T08:41:37.110Z,57.17
2022-10-17T08:42:37.062Z,58.08
2022-10-17T08:43:37.067Z,58.37
2022-10-17T08:44:37.067Z,57.99
2022-10-17T08:45:37.133Z,57.93
2022-10-17T08:46:37.363Z,58.69
2022-10-17T08:47:37.109Z,57.60
2022-10-17T08:48:37.097Z,57.24
2022-10-17T08:49:37.118Z,55.79
2022-10-17T08:50:37.148Z,55.94
2022-10-17T08:51:37.061Z,57.14
2022-10-17T08:52:37.111Z,56.88
2022-10-17T08:53:37.119Z,57.24
2022-10-17T08:54:37.095Z,58.21
2022-10-17T08:55:39.990Z,56.68
2022-10-17T08:56:47.902Z,56.34
2022-10-17T08:57:39.018Z,56.10
2022-10-17T08:58:37.037Z,58.29
2022-10-17T08:59:36.934Z,56.06
2022-10-17T09:00:36.944Z,55.73
2022-10-17T10:22:17.608Z,55.81
2022-10-17T10:23:17.690Z,56.20
2022-10-17T10:24:17.599Z,57.04
2022-10-17T10:25:17.681Z,55.28
2022-10-17T10:26:20.287Z,57.56
2022-10-17T10:27:18.663Z,55.43
2022-10-17T10:28:17.616Z,54.51
2022-10-17T10:29:17.584Z,54.64
2022-10-17T10:30:17.605Z,54.27
2022-10-17T10:31:17.575Z,55.24
2022-10-17T10:32:17.655Z,54.08
2022-10-17T10:33:17.578Z,52.95
2022-10-17T10:34:17.624Z,52.63
2022-10-17T10:35:17.585Z,53.28
2022-10-17T10:36:17.565Z,55.42
2022-10-17T10:37:17.675Z,53.36
2022-10-17T10:38:17.563Z,55.51
2022-10-17T10:39:17.600Z,53.77
2022-10-17T10:40:17.506Z,56.63
2022-10-17T10:41:17.428Z,54.80
2022-10-17T10:42:17.398Z,55.92
2022-10-17T10:43:18.514Z,56.29
2022-10-17T10:44:17.452Z,54.82
2022-10-17T10:45:29.229Z,55.21
2022-10-17T10:46:19.535Z,55.71
2022-10-17T10:47:17.504Z,56.33
2022-10-17T10:48:17.538Z,56.48
2022-10-17T10:49:17.492Z,57.22
2022-10-17T10:50:17.479Z,55.13
2022-10-17T10:51:17.432Z,56.73
2022-10-17T10:52:17.443Z,56.77
2022-10-17T10:53:17.435Z,55.55
2022-10-17T10:54:17.425Z,55.44
2022-10-17T10:55:17.379Z,53.42
2022-10-17T10:56:17.530Z,51.99
2022-10-17T10:57:17.511Z,52.36
2022-10-17T10:58:17.313Z,53.89
2022-10-17T10:59:18.680Z,54.57
2022-10-17T11:00:17.433Z,54.22
2022-10-17T11:01:17.499Z,54.70
2022-10-17T11:02:17.327Z,56.09
2022-10-17T11:03:17.494Z,54.18
2022-10-17T11:04:17.353Z,54.42
2022-10-17T11:05:17.473Z,53.62
2022-10-17T11:06:17.254Z,53.41
2022-10-17T11:07:17.298Z,54.55
2022-10-17T11:08:17.275Z,55.69
2022-10-17T11:09:17.240Z,53.12
2022-10-17T11:10:17.309Z,54.16
2022-10-17T11:11:17.193Z,54.66
2022-10-17T11:12:17.242Z,55.09
2022-10-17T11:13:17.465Z,54.57
2022-10-17T11:14:17.299Z,53.53
2022-10-17T11:15:17.408Z,55.23
2022-10-17T11:16:17.352Z,55.44
2022-10-17T11:17:17.418Z,57.22
2022-10-17T11:18:17.399Z,55.94
2022-10-17T11:19:17.368Z,56.12
2022-10-17T11:20:17.403Z,53.86
2022-10-17T11:21:17.403Z,54.65
2022-10-17T11:22:17.403Z,55.45
2022-10-17T11:23:17.401Z,54.39
2022-10-17T11:24:17.217Z,55.16
2022-10-17T11:25:17.182Z,55.18
2022-10-17T11:26:17.606Z,54.00
2022-10-17T11:27:17.149Z,55.12
2022-10-17T11:28:17.272Z,55.92
2022-10-17T11:29:17.298Z,54.92
2022-10-17T11:30:17.138Z,55.26
2022-10-17T11:31:17.354Z,53.65
2022-10-17T11:32:17.300Z,55.05
2022-10-17T11:33:17.338Z,56.19
2022-10-17T11:34:17.256Z,56.23
2022-10-17T11:35:17.324Z,54.86
2022-10-17T11:36:17.205Z,55.54
2022-10-17T11:37:17.348Z,55.03
2022-10-17T11:38:17.081Z,56.46
2022-10-17T11:39:17.018Z,55.36
2022-10-17T11:40:19.270Z,54.11
2022-10-17T11:41:19.112Z,57.37
2022-10-17T11:42:17.071Z,52.72
2022-10-17T11:43:17.071Z,54.18
2022-10-17T11:44:17.167Z,55.86
2022-10-17T11:45:17.239Z,55.53
2022-10-17T11:46:17.095Z,55.94
2022-10-17T11:47:17.240Z,54.36
2022-10-17T11:48:17.231Z,56.91
2022-10-17T11:49:20.412Z,54.85
2022-10-17T11:52:37.400Z,53.88
2022-10-17T11:53:19.076Z,55.21
2022-10-17T11:54:16.932Z,53.94
2022-10-17T11:55:16.930Z,57.07
2022-10-17T11:56:17.005Z,56.72
2022-10-17T11:57:17.087Z,53.74
2022-10-17T11:58:17.038Z,55.41
2022-10-17T11:59:17.176Z,54.65
2022-10-17T12:00:17.031Z,56.45
2022-10-17T12:01:16.923Z,55.22
2022-10-17T12:02:16.914Z,54.69
2022-10-17T12:03:16.944Z,53.51
2022-10-17T12:04:17.294Z,53.35
2022-10-17T12:05:16.939Z,53.90
2022-10-17T12:06:17.010Z,55.18
2022-10-17T12:07:16.919Z,53.93
2022-10-17T12:08:16.824Z,53.94
2022-10-17T12:09:16.885Z,55.60
2022-10-17T12:10:16.803Z,53.12
2022-10-17T12:11:16.758Z,53.72
2022-10-17T12:12:17.033Z,53.63
2022-10-17T12:13:16.764Z,54.92
2022-10-17T12:14:16.843Z,55.10
2022-10-17T12:15:16.732Z,54.08
2022-10-17T12:16:17.589Z,54.17
2022-10-17T12:17:17.794Z,52.95
2022-10-17T12:18:16.794Z,54.98
2022-10-17T12:19:16.781Z,54.42
2022-10-17T12:20:16.864Z,52.89
2022-10-17T12:21:16.768Z,55.54
2022-10-17T12:22:16.747Z,55.53
2022-10-17T12:23:17.851Z,53.14
2022-10-17T12:24:18.879Z,52.75
2022-10-17T12:25:17.789Z,52.27
2022-10-17T12:26:16.681Z,54.39
2022-10-17T12:27:16.661Z,53.61
2022-10-17T12:28:16.616Z,52.78
2022-10-17T12:29:16.632Z,54.06
2022-10-17T12:30:16.616Z,53.54
2022-10-17T12:31:16.930Z,52.40
2022-10-17T12:32:16.587Z,51.67
2022-10-17T12:33:16.583Z,52.11
2022-10-17T12:34:16.593Z,55.37
2022-10-17T12:35:16.699Z,55.10
2022-10-17T12:36:16.675Z,53.81
2022-10-17T12:37:16.714Z,53.95
2022-10-17T12:38:16.674Z,54.83
2022-10-17T12:39:16.663Z,52.13
2022-10-17T12:40:16.607Z,55.33
2022-10-17T12:41:16.745Z,52.80
2022-10-17T12:42:16.598Z,56.21
2022-10-17T12:43:16.611Z,53.04
2022-10-17T12:44:16.797Z,55.25
2022-10-17T12:45:16.604Z,59.64
2022-10-17T12:46:16.614Z,57.05
2022-10-17T12:47:17.620Z,61.32
2022-10-17T12:48:16.494Z,52.68
2022-10-17T12:49:16.533Z,53.72
2022-10-17T12:50:16.572Z,54.01
2022-10-17T12:52:18.492Z,61.36
2022-10-17T12:53:19.161Z,57.42
2022-10-17T12:54:16.414Z,53.45
2022-10-17T12:55:16.612Z,53.21
2022-10-17T12:56:16.516Z,52.88
2022-10-17T12:57:16.636Z,51.77
2022-10-17T12:58:16.401Z,50.60
2022-10-17T12:59:16.477Z,50.97
2022-10-17T13:00:16.478Z,54.14
2022-10-17T13:01:24.287Z,55.18
2022-10-17T13:02:18.520Z,56.11
2022-10-17T13:03:16.458Z,56.74
2022-10-17T13:04:16.476Z,56.39
2022-10-17T13:05:16.452Z,55.34
2022-10-17T13:06:16.436Z,52.66
2022-10-17T13:07:16.854Z,53.34
2022-10-17T13:08:16.408Z,55.78
2022-10-17T13:09:16.322Z,55.05
2022-10-17T13:10:17.048Z,54.24
2022-10-17T13:11:16.419Z,54.67
2022-10-17T13:12:16.421Z,55.20
2022-10-17T13:13:16.459Z,55.30
2022-10-17T13:14:16.418Z,56.37
2022-10-17T13:15:16.449Z,53.77
2022-10-17T13:16:17.232Z,53.26
2022-10-17T13:17:16.353Z,52.81
2022-10-17T13:18:16.422Z,54.82
2022-10-17T13:19:16.353Z,55.40
2022-10-17T13:20:16.330Z,56.03
2022-10-17T13:21:16.334Z,52.52
2022-10-17T13:22:16.345Z,52.42
2022-10-17T13:23:16.314Z,53.17
2022-10-17T13:24:16.378Z,54.00
2022-10-17T13:25:16.229Z,54.30
2022-10-17T13:26:16.225Z,53.47
2022-10-17T13:27:16.214Z,55.12
2022-10-17T13:28:16.197Z,54.49
2022-10-17T13:29:16.195Z,55.86
2022-10-17T13:30:16.230Z,57.07
2022-10-17T13:31:16.188Z,56.89
2022-10-17T13:32:16.195Z,53.66
2022-10-17T13:33:16.222Z,54.25
2022-10-17T13:34:16.248Z,52.15
2022-10-17T13:35:16.452Z,53.43
2022-10-17T13:36:16.263Z,54.94
2022-10-17T13:37:17.254Z,53.84
2022-10-17T13:38:16.305Z,52.62
2022-10-17T13:39:17.204Z,55.45
2022-10-17T13:40:44.028Z,55.89
2022-10-17T13:41:35.322Z,57.78
2022-10-17T13:42:18.155Z,55.25
2022-10-17T13:43:16.169Z,54.29
2022-10-17T13:44:16.154Z,55.14
2022-10-17T13:45:16.177Z,54.37
2022-10-17T13:46:36.166Z,53.47
2022-10-17T13:48:16.121Z,52.50
2022-10-17T13:49:16.116Z,52.49
2022-10-17T13:50:39.459Z,51.04
2022-10-17T13:51:18.236Z,52.59
2022-10-17T13:52:16.048Z,51.81
2022-10-17T13:53:16.128Z,52.79
2022-10-17T13:54:16.122Z,50.03
2022-10-17T13:55:17.530Z,52.98
2022-10-17T13:56:27.770Z,53.58
2022-10-17T13:57:18.017Z,53.11
2022-10-17T13:58:15.992Z,52.19
2022-10-17T13:59:16.102Z,52.06
2022-10-17T14:00:16.054Z,51.71
2022-10-17T14:01:16.147Z,52.38
2022-10-17T14:02:16.121Z,51.61
2022-10-17T14:03:16.096Z,50.35
2022-10-17T14:04:20.080Z,51.24
2022-10-17T14:05:18.557Z,53.32
2022-10-17T14:06:17.041Z,50.84
2022-10-17T14:07:15.962Z,50.09
2022-10-17T14:08:21.911Z,50.83
2022-10-17T14:09:17.940Z,52.14
2022-10-17T14:10:15.947Z,51.93
2022-10-17T14:11:15.901Z,49.73
2022-10-17T14:12:15.850Z,50.11
2022-10-17T14:13:15.901Z,51.56
2022-10-17T14:14:15.900Z,50.51
2022-10-17T14:15:15.875Z,51.83
2022-10-17T14:16:16.007Z,50.73
2022-10-17T14:17:15.984Z,50.68
2022-10-17T14:18:16.070Z,51.99
2022-10-17T14:19:15.977Z,53.98
2022-10-17T14:20:48.284Z,52.11
2022-10-17T14:21:43.264Z,51.58